sensor_id;sensor_type;location;lat;lon;timestamp;pressure;altitude;pressure_sealevel;temperature;humidity
41531;BME280;58990;46.284;13.126;2022-11-13T00:00:48;100448.47;;;7.46;82.14
41531;BME280;58990;46.284;13.126;2022-11-13T00:03:13;100440.63;;;7.46;82.40
41531;BME280;58990;46.284;13.126;2022-11-13T00:05:39;100438.59;;;7.49;82.40
41531;BME280;58990;46.284;13.126;2022-11-13T00:08:04;100430.03;;;7.47;83.71
41531;BME280;58990;46.284;13.126;2022-11-13T00:10:29;100432.09;;;7.44;83.20
41531;BME280;58990;46.284;13.126;2022-11-13T00:12:55;100428.09;;;7.39;82.46
41531;BME280;58990;46.284;13.126;2022-11-13T00:15:20;100424.78;;;7.37;82.84
41531;BME280;58990;46.284;13.126;2022-11-13T00:17:46;100424.09;;;7.35;83.03
41531;BME280;58990;46.284;13.126;2022-11-13T00:20:11;100419.78;;;7.24;83.02
41531;BME280;58990;46.284;13.126;2022-11-13T00:22:37;100415.91;;;7.19;83.80
41531;BME280;58990;46.284;13.126;2022-11-13T00:25:03;100417.84;;;7.17;84.44
41531;BME280;58990;46.284;13.126;2022-11-13T00:27:29;100405.72;;;7.16;85.04
41531;BME280;58990;46.284;13.126;2022-11-13T00:29:55;100412.91;;;7.23;84.71
41531;BME280;58990;46.284;13.126;2022-11-13T00:32:20;100416.06;;;7.27;83.64
41531;BME280;58990;46.284;13.126;2022-11-13T00:34:46;100408.50;;;7.24;83.88
41531;BME280;58990;46.284;13.126;2022-11-13T00:37:11;100404.78;;;7.17;82.78
41531;BME280;58990;46.284;13.126;2022-11-13T00:39:36;100412.44;;;7.09;82.96
41531;BME280;58990;46.284;13.126;2022-11-13T00:42:02;100403.50;;;7.11;83.41
41531;BME280;58990;46.284;13.126;2022-11-13T00:44:27;100411.22;;;7.13;83.61
41531;BME280;58990;46.284;13.126;2022-11-13T00:46:53;100415.28;;;7.05;83.70
41531;BME280;58990;46.284;13.126;2022-11-13T00:49:18;100414.47;;;7.05;83.69
41531;BME280;58990;46.284;13.126;2022-11-13T00:51:43;100410.78;;;7.07;84.17
41531;BME280;58990;46.284;13.126;2022-11-13T00:54:09;100417.06;;;7.26;83.38
41531;BME280;58990;46.284;13.126;2022-11-13T00:56:34;100413.59;;;7.26;82.39
41531;BME280;58990;46.284;13.126;2022-11-13T00:59:00;100419.66;;;7.26;82.68
41531;BME280;58990;46.284;13.126;2022-11-13T01:01:25;100423.06;;;7.17;83.71
41531;BME280;58990;46.284;13.126;2022-11-13T01:03:50;100420.75;;;7.23;83.57
41531;BME280;58990;46.284;13.126;2022-11-13T01:08:55;100430.22;;;7.24;81.96
41531;BME280;58990;46.284;13.126;2022-11-13T01:11:25;100427.44;;;7.16;82.29
41531;BME280;58990;46.284;13.126;2022-11-13T01:13:51;100428.19;;;7.07;82.18
41531;BME280;58990;46.284;13.126;2022-11-13T01:16:19;100423.13;;;7.05;81.48
41531;BME280;58990;46.284;13.126;2022-11-13T01:18:45;100419.66;;;6.95;81.89
41531;BME280;58990;46.284;13.126;2022-11-13T01:21:17;100420.59;;;6.94;82.55
41531;BME280;58990;46.284;13.126;2022-11-13T01:23:43;100419.88;;;6.92;82.65
41531;BME280;58990;46.284;13.126;2022-11-13T01:26:11;100415.19;;;6.86;82.91
41531;BME280;58990;46.284;13.126;2022-11-13T01:28:38;100413.22;;;6.78;82.53
41531;BME280;58990;46.284;13.126;2022-11-13T01:31:06;100415.38;;;6.73;82.68
41531;BME280;58990;46.284;13.126;2022-11-13T01:33:31;100405.50;;;6.77;82.88
41531;BME280;58990;46.284;13.126;2022-11-13T01:36:10;100402.50;;;6.81;82.26
41531;BME280;58990;46.284;13.126;2022-11-13T01:38:36;100400.94;;;6.90;81.46
41531;BME280;58990;46.284;13.126;2022-11-13T01:41:02;100387.16;;;6.88;81.47
41531;BME280;58990;46.284;13.126;2022-11-13T01:43:30;100382.22;;;6.85;81.82
41531;BME280;58990;46.284;13.126;2022-11-13T01:48:38;100375.44;;;7.03;80.90
41531;BME280;58990;46.284;13.126;2022-11-13T01:51:09;100379.69;;;7.04;80.94
41531;BME280;58990;46.284;13.126;2022-11-13T01:53:36;100373.28;;;7.09;80.55
41531;BME280;58990;46.284;13.126;2022-11-13T01:56:01;100373.00;;;7.12;79.83
41531;BME280;58990;46.284;13.126;2022-11-13T01:58:27;100375.00;;;7.29;78.49
41531;BME280;58990;46.284;13.126;2022-11-13T02:00:52;100379.59;;;7.47;78.52
41531;BME280;58990;46.284;13.126;2022-11-13T02:03:18;100381.00;;;7.61;79.05
41531;BME280;58990;46.284;13.126;2022-11-13T02:05:43;100383.47;;;7.62;78.79
41531;BME280;58990;46.284;13.126;2022-11-13T02:08:09;100392.97;;;7.63;78.72
41531;BME280;58990;46.284;13.126;2022-11-13T02:10:35;100403.28;;;7.55;78.71
41531;BME280;58990;46.284;13.126;2022-11-13T02:13:00;100408.03;;;7.40;80.43
41531;BME280;58990;46.284;13.126;2022-11-13T02:15:27;100417.63;;;7.39;80.64
41531;BME280;58990;46.284;13.126;2022-11-13T02:17:56;100412.31;;;7.41;79.93
41531;BME280;58990;46.284;13.126;2022-11-13T02:20:51;100415.88;;;7.40;79.79
41531;BME280;58990;46.284;13.126;2022-11-13T02:26:12;100412.44;;;7.09;82.04
41531;BME280;58990;46.284;13.126;2022-11-13T02:28:37;100406.94;;;7.12;82.16
41531;BME280;58990;46.284;13.126;2022-11-13T02:31:11;100401.28;;;7.06;82.19
41531;BME280;58990;46.284;13.126;2022-11-13T02:33:36;100400.19;;;7.09;81.59
41531;BME280;58990;46.284;13.126;2022-11-13T02:36:04;100408.97;;;7.08;81.79
41531;BME280;58990;46.284;13.126;2022-11-13T02:38:31;100409.22;;;6.95;82.35
41531;BME280;58990;46.284;13.126;2022-11-13T02:40:57;100399.91;;;7.02;82.60
41531;BME280;58990;46.284;13.126;2022-11-13T02:43:22;100401.00;;;7.10;81.89
41531;BME280;58990;46.284;13.126;2022-11-13T02:45:47;100398.41;;;7.10;81.57
41531;BME280;58990;46.284;13.126;2022-11-13T02:48:13;100393.06;;;7.11;80.91
41531;BME280;58990;46.284;13.126;2022-11-13T02:50:38;100379.13;;;7.32;78.57
41531;BME280;58990;46.284;13.126;2022-11-13T02:53:04;100378.47;;;7.39;77.95
41531;BME280;58990;46.284;13.126;2022-11-13T02:55:30;100353.78;;;7.73;75.69
41531;BME280;58990;46.284;13.126;2022-11-13T02:57:55;100352.03;;;7.93;73.73
41531;BME280;58990;46.284;13.126;2022-11-13T03:00:21;100355.63;;;8.21;71.60
41531;BME280;58990;46.284;13.126;2022-11-13T03:02:47;100349.03;;;8.37;70.15
41531;BME280;58990;46.284;13.126;2022-11-13T03:05:12;100330.53;;;8.58;69.67
41531;BME280;58990;46.284;13.126;2022-11-13T03:07:37;100313.84;;;8.79;67.79
41531;BME280;58990;46.284;13.126;2022-11-13T03:10:03;100299.06;;;8.87;67.80
41531;BME280;58990;46.284;13.126;2022-11-13T03:12:29;100293.78;;;8.97;67.99
41531;BME280;58990;46.284;13.126;2022-11-13T03:14:54;100289.03;;;9.11;66.95
41531;BME280;58990;46.284;13.126;2022-11-13T03:17:19;100273.50;;;9.27;66.02
41531;BME280;58990;46.284;13.126;2022-11-13T03:19:45;100273.06;;;9.50;66.08
41531;BME280;58990;46.284;13.126;2022-11-13T03:22:10;100276.22;;;9.35;67.56
41531;BME280;58990;46.284;13.126;2022-11-13T03:24:35;100270.50;;;9.22;68.51
41531;BME280;58990;46.284;13.126;2022-11-13T03:27:01;100278.16;;;8.78;70.89
41531;BME280;58990;46.284;13.126;2022-11-13T03:29:26;100293.66;;;8.51;72.68
41531;BME280;58990;46.284;13.126;2022-11-13T03:31:52;100290.09;;;8.23;73.60
41531;BME280;58990;46.284;13.126;2022-11-13T03:34:17;100293.28;;;8.07;74.72
41531;BME280;58990;46.284;13.126;2022-11-13T03:36:42;100294.25;;;8.06;74.12
41531;BME280;58990;46.284;13.126;2022-11-13T03:39:08;100302.22;;;8.24;72.63
41531;BME280;58990;46.284;13.126;2022-11-13T03:41:33;100288.41;;;8.41;73.40
41531;BME280;58990;46.284;13.126;2022-11-13T03:43:59;100293.34;;;8.64;71.19
41531;BME280;58990;46.284;13.126;2022-11-13T03:46:24;100310.97;;;8.62;70.85
41531;BME280;58990;46.284;13.126;2022-11-13T03:48:49;100314.59;;;8.41;71.44
41531;BME280;58990;46.284;13.126;2022-11-13T03:51:15;100323.69;;;8.37;71.85
41531;BME280;58990;46.284;13.126;2022-11-13T03:53:40;100319.97;;;8.30;71.76
41531;BME280;58990;46.284;13.126;2022-11-13T03:56:06;100312.69;;;8.24;72.21
41531;BME280;58990;46.284;13.126;2022-11-13T03:58:31;100303.31;;;8.21;71.96
41531;BME280;58990;46.284;13.126;2022-11-13T04:00:57;100311.59;;;8.17;72.44
41531;BME280;58990;46.284;13.126;2022-11-13T04:03:22;100311.31;;;8.10;72.76
41531;BME280;58990;46.284;13.126;2022-11-13T04:05:49;100299.06;;;8.11;72.54
41531;BME280;58990;46.284;13.126;2022-11-13T04:08:15;100297.00;;;8.14;72.28
41531;BME280;58990;46.284;13.126;2022-11-13T04:10:41;100292.31;;;8.18;72.51
41531;BME280;58990;46.284;13.126;2022-11-13T04:13:06;100288.59;;;8.20;71.93
41531;BME280;58990;46.284;13.126;2022-11-13T04:15:32;100287.22;;;8.26;71.45
41531;BME280;58990;46.284;13.126;2022-11-13T04:17:57;100277.44;;;8.28;71.07
41531;BME280;58990;46.284;13.126;2022-11-13T04:20:23;100287.88;;;8.28;71.21
41531;BME280;58990;46.284;13.126;2022-11-13T04:22:49;100281.00;;;8.27;70.94
41531;BME280;58990;46.284;13.126;2022-11-13T04:25:15;100277.72;;;8.05;72.27
41531;BME280;58990;46.284;13.126;2022-11-13T04:27:40;100282.97;;;8.05;71.98
41531;BME280;58990;46.284;13.126;2022-11-13T04:30:06;100282.16;;;7.95;72.59
41531;BME280;58990;46.284;13.126;2022-11-13T04:32:32;100280.50;;;7.74;73.70
41531;BME280;58990;46.284;13.126;2022-11-13T04:34:57;100282.97;;;7.86;73.86
41531;BME280;58990;46.284;13.126;2022-11-13T04:37:23;100285.31;;;7.89;72.65
41531;BME280;58990;46.284;13.126;2022-11-13T04:39:51;100274.16;;;8.06;71.42
41531;BME280;58990;46.284;13.126;2022-11-13T04:42:16;100278.28;;;8.19;70.40
41531;BME280;58990;46.284;13.126;2022-11-13T04:45:02;100266.53;;;8.42;68.31
41531;BME280;58990;46.284;13.126;2022-11-13T04:47:28;100258.38;;;8.55;67.91
41531;BME280;58990;46.284;13.126;2022-11-13T04:49:53;100259.22;;;8.46;68.68
41531;BME280;58990;46.284;13.126;2022-11-13T04:52:19;100252.97;;;8.19;69.67
41531;BME280;58990;46.284;13.126;2022-11-13T04:54:44;100252.84;;;8.01;71.66
41531;BME280;58990;46.284;13.126;2022-11-13T04:57:09;100245.28;;;7.98;70.20
41531;BME280;58990;46.284;13.126;2022-11-13T04:59:38;100235.50;;;7.90;70.70
41531;BME280;58990;46.284;13.126;2022-11-13T05:02:03;100242.00;;;7.77;72.06
41531;BME280;58990;46.284;13.126;2022-11-13T05:04:29;100248.59;;;7.71;72.83
41531;BME280;58990;46.284;13.126;2022-11-13T05:06:54;100241.16;;;7.66;71.63
41531;BME280;58990;46.284;13.126;2022-11-13T05:09:19;100252.44;;;7.67;71.97
41531;BME280;58990;46.284;13.126;2022-11-13T05:11:45;100255.22;;;7.65;72.37
41531;BME280;58990;46.284;13.126;2022-11-13T05:14:11;100249.97;;;7.85;71.58
41531;BME280;58990;46.284;13.126;2022-11-13T05:16:37;100266.34;;;7.87;71.25
41531;BME280;58990;46.284;13.126;2022-11-13T05:19:03;100272.94;;;7.91;70.94
41531;BME280;58990;46.284;13.126;2022-11-13T05:21:36;100278.56;;;7.96;70.51
41531;BME280;58990;46.284;13.126;2022-11-13T05:24:02;100277.47;;;7.99;70.59
41531;BME280;58990;46.284;13.126;2022-11-13T05:26:28;100273.50;;;8.04;71.40
41531;BME280;58990;46.284;13.126;2022-11-13T05:28:58;100262.34;;;8.02;70.16
41531;BME280;58990;46.284;13.126;2022-11-13T05:31:24;100281.03;;;8.07;71.46
41531;BME280;58990;46.284;13.126;2022-11-13T05:33:50;100293.00;;;7.90;71.23
41531;BME280;58990;46.284;13.126;2022-11-13T05:36:17;100293.72;;;7.83;72.06
41531;BME280;58990;46.284;13.126;2022-11-13T05:38:44;100294.81;;;7.80;72.55
41531;BME280;58990;46.284;13.126;2022-11-13T05:41:17;100291.22;;;7.71;72.92
41531;BME280;58990;46.284;13.126;2022-11-13T05:43:43;100300.81;;;7.61;73.91
41531;BME280;58990;46.284;13.126;2022-11-13T05:48:53;100321.97;;;7.38;74.81
41531;BME280;58990;46.284;13.126;2022-11-13T05:51:22;100326.34;;;7.28;75.45
41531;BME280;58990;46.284;13.126;2022-11-13T05:53:48;100326.63;;;7.25;76.02
41531;BME280;58990;46.284;13.126;2022-11-13T05:56:20;100339.69;;;7.35;74.79
41531;BME280;58990;46.284;13.126;2022-11-13T05:58:47;100354.88;;;7.10;76.53
41531;BME280;58990;46.284;13.126;2022-11-13T06:01:15;100361.69;;;7.01;77.10
41531;BME280;58990;46.284;13.126;2022-11-13T06:03:42;100358.28;;;7.11;75.32
41531;BME280;58990;46.284;13.126;2022-11-13T06:06:09;100362.69;;;7.10;75.94
41531;BME280;58990;46.284;13.126;2022-11-13T06:08:35;100383.59;;;7.10;75.26
41531;BME280;58990;46.284;13.126;2022-11-13T06:11:03;100400.06;;;7.11;75.47
41531;BME280;58990;46.284;13.126;2022-11-13T06:13:29;100412.00;;;7.03;75.33
41531;BME280;58990;46.284;13.126;2022-11-13T06:16:00;100423.56;;;7.11;75.38
41531;BME280;58990;46.284;13.126;2022-11-13T06:18:26;100449.88;;;6.98;77.24
41531;BME280;58990;46.284;13.126;2022-11-13T06:20:52;100465.28;;;7.01;77.38
41531;BME280;58990;46.284;13.126;2022-11-13T06:23:17;100461.63;;;6.92;77.60
41531;BME280;58990;46.284;13.126;2022-11-13T06:25:43;100458.66;;;6.97;77.25
41531;BME280;58990;46.284;13.126;2022-11-13T06:28:09;100467.38;;;6.86;77.67
41531;BME280;58990;46.284;13.126;2022-11-13T06:30:34;100469.41;;;7.03;76.79
41531;BME280;58990;46.284;13.126;2022-11-13T06:33:00;100471.25;;;6.92;78.16
41531;BME280;58990;46.284;13.126;2022-11-13T06:35:25;100462.84;;;7.09;77.33
41531;BME280;58990;46.284;13.126;2022-11-13T06:37:50;100477.69;;;7.09;77.48
41531;BME280;58990;46.284;13.126;2022-11-13T06:40:18;100474.97;;;7.10;77.45
41531;BME280;58990;46.284;13.126;2022-11-13T06:42:43;100481.19;;;7.19;77.10
41531;BME280;58990;46.284;13.126;2022-11-13T06:45:09;100488.69;;;7.12;77.62
41531;BME280;58990;46.284;13.126;2022-11-13T06:47:34;100496.91;;;7.07;78.29
41531;BME280;58990;46.284;13.126;2022-11-13T06:50:00;100504.94;;;7.16;77.02
41531;BME280;58990;46.284;13.126;2022-11-13T06:52:25;100510.03;;;7.38;75.69
41531;BME280;58990;46.284;13.126;2022-11-13T06:54:50;100499.66;;;7.58;74.78
41531;BME280;58990;46.284;13.126;2022-11-13T06:57:16;100497.00;;;7.79;74.04
41531;BME280;58990;46.284;13.126;2022-11-13T06:59:41;100490.22;;;8.07;72.98
41531;BME280;58990;46.284;13.126;2022-11-13T07:02:10;100482.00;;;8.22;72.21
41531;BME280;58990;46.284;13.126;2022-11-13T07:04:36;100478.03;;;10.09;68.31
41531;BME280;58990;46.284;13.126;2022-11-13T07:07:01;100465.59;;;13.85;54.58
41531;BME280;58990;46.284;13.126;2022-11-13T07:09:28;100454.84;;;16.28;46.87
41531;BME280;58990;46.284;13.126;2022-11-13T07:11:53;100442.97;;;18.28;42.26
41531;BME280;58990;46.284;13.126;2022-11-13T07:14:19;100434.66;;;19.50;38.56
41531;BME280;58990;46.284;13.126;2022-11-13T07:16:44;100430.34;;;20.01;37.47
41531;BME280;58990;46.284;13.126;2022-11-13T07:19:09;100427.16;;;19.86;37.07
41531;BME280;58990;46.284;13.126;2022-11-13T07:21:35;100423.53;;;18.81;39.14
41531;BME280;58990;46.284;13.126;2022-11-13T07:24:00;100434.13;;;17.94;40.82
41531;BME280;58990;46.284;13.126;2022-11-13T07:26:25;100419.25;;;17.58;41.45
41531;BME280;58990;46.284;13.126;2022-11-13T07:28:51;100393.91;;;18.71;40.04
41531;BME280;58990;46.284;13.126;2022-11-13T07:31:16;100380.38;;;20.47;36.79
41531;BME280;58990;46.284;13.126;2022-11-13T07:33:42;100364.09;;;22.39;32.38
41531;BME280;58990;46.284;13.126;2022-11-13T07:36:09;100359.38;;;23.17;30.14
41531;BME280;58990;46.284;13.126;2022-11-13T07:38:35;100351.09;;;23.48;29.44
41531;BME280;58990;46.284;13.126;2022-11-13T07:41:01;100345.31;;;23.85;28.62
41531;BME280;58990;46.284;13.126;2022-11-13T07:43:27;100340.31;;;23.89;27.79
41531;BME280;58990;46.284;13.126;2022-11-13T07:45:53;100333.34;;;24.61;27.08
41531;BME280;58990;46.284;13.126;2022-11-13T07:48:20;100334.03;;;23.66;27.98
41531;BME280;58990;46.284;13.126;2022-11-13T07:50:46;100332.28;;;23.60;28.22
41531;BME280;58990;46.284;13.126;2022-11-13T07:53:12;100318.03;;;22.37;29.57
41531;BME280;58990;46.284;13.126;2022-11-13T07:55:38;100311.66;;;23.89;27.71
41531;BME280;58990;46.284;13.126;2022-11-13T07:58:04;100304.75;;;24.49;27.04
41531;BME280;58990;46.284;13.126;2022-11-13T08:00:31;100310.44;;;24.70;26.43
41531;BME280;58990;46.284;13.126;2022-11-13T08:02:57;100316.13;;;23.26;28.84
41531;BME280;58990;46.284;13.126;2022-11-13T08:05:23;100307.03;;;23.56;28.26
41531;BME280;58990;46.284;13.126;2022-11-13T08:07:50;100305.50;;;24.45;27.44
41531;BME280;58990;46.284;13.126;2022-11-13T08:10:17;100302.16;;;23.69;27.26
41531;BME280;58990;46.284;13.126;2022-11-13T08:12:43;100290.00;;;23.04;28.58
41531;BME280;58990;46.284;13.126;2022-11-13T08:15:12;100285.41;;;21.93;30.04
41531;BME280;58990;46.284;13.126;2022-11-13T08:17:38;100280.31;;;22.27;29.54
41531;BME280;58990;46.284;13.126;2022-11-13T08:20:04;100289.13;;;21.80;30.78
41531;BME280;58990;46.284;13.126;2022-11-13T08:22:30;100297.88;;;22.11;30.45
41531;BME280;58990;46.284;13.126;2022-11-13T08:24:56;100299.06;;;23.03;28.62
41531;BME280;58990;46.284;13.126;2022-11-13T08:27:22;100305.69;;;23.70;27.36
41531;BME280;58990;46.284;13.126;2022-11-13T08:29:48;100308.28;;;24.33;27.01
41531;BME280;58990;46.284;13.126;2022-11-13T08:32:15;100292.84;;;23.72;27.46
41531;BME280;58990;46.284;13.126;2022-11-13T08:34:41;100303.00;;;24.60;26.76
41531;BME280;58990;46.284;13.126;2022-11-13T08:37:07;100313.56;;;26.68;24.33
41531;BME280;58990;46.284;13.126;2022-11-13T08:39:32;100319.97;;;26.19;24.24
41531;BME280;58990;46.284;13.126;2022-11-13T08:42:00;100318.91;;;25.56;24.91
41531;BME280;58990;46.284;13.126;2022-11-13T08:44:26;100317.84;;;26.22;24.16
41531;BME280;58990;46.284;13.126;2022-11-13T08:46:51;100300.97;;;26.31;23.86
41531;BME280;58990;46.284;13.126;2022-11-13T08:49:16;100303.66;;;26.84;23.98
41531;BME280;58990;46.284;13.126;2022-11-13T08:51:42;100304.09;;;25.85;24.79
41531;BME280;58990;46.284;13.126;2022-11-13T08:54:07;100291.47;;;27.45;22.96
41531;BME280;58990;46.284;13.126;2022-11-13T08:56:33;100293.63;;;27.74;22.19
41531;BME280;58990;46.284;13.126;2022-11-13T08:58:58;100292.50;;;28.22;21.89
41531;BME280;58990;46.284;13.126;2022-11-13T09:01:23;100291.88;;;28.56;21.21
41531;BME280;58990;46.284;13.126;2022-11-13T09:03:49;100295.34;;;29.27;20.73
41531;BME280;58990;46.284;13.126;2022-11-13T09:06:14;100295.31;;;29.37;20.65
41531;BME280;58990;46.284;13.126;2022-11-13T09:08:40;100301.47;;;28.93;21.23
41531;BME280;58990;46.284;13.126;2022-11-13T09:11:05;100304.53;;;25.17;26.57
41531;BME280;58990;46.284;13.126;2022-11-13T09:13:32;100305.09;;;24.36;28.74
41531;BME280;58990;46.284;13.126;2022-11-13T09:15:59;100312.88;;;22.00;31.70
41531;BME280;58990;46.284;13.126;2022-11-13T09:18:25;100313.38;;;23.83;30.14
41531;BME280;58990;46.284;13.126;2022-11-13T09:20:50;100315.84;;;24.02;29.68
41531;BME280;58990;46.284;13.126;2022-11-13T09:23:16;100317.00;;;22.50;30.19
41531;BME280;58990;46.284;13.126;2022-11-13T09:25:41;100321.97;;;22.46;29.80
41531;BME280;58990;46.284;13.126;2022-11-13T09:28:08;100335.78;;;24.79;27.56
41531;BME280;58990;46.284;13.126;2022-11-13T09:30:36;100344.97;;;25.33;26.76
41531;BME280;58990;46.284;13.126;2022-11-13T09:33:02;100353.13;;;25.38;26.47
41531;BME280;58990;46.284;13.126;2022-11-13T09:35:29;100348.94;;;23.91;29.29
41531;BME280;58990;46.284;13.126;2022-11-13T09:38:06;100340.56;;;24.04;29.51
41531;BME280;58990;46.284;13.126;2022-11-13T09:40:35;100351.31;;;24.99;28.20
41531;BME280;58990;46.284;13.126;2022-11-13T09:43:03;100361.84;;;24.45;28.59
41531;BME280;58990;46.284;13.126;2022-11-13T09:45:31;100353.03;;;25.33;27.20
41531;BME280;58990;46.284;13.126;2022-11-13T09:48:08;100353.78;;;25.01;27.06
41531;BME280;58990;46.284;13.126;2022-11-13T09:50:38;100351.81;;;21.47;32.34
41531;BME280;58990;46.284;13.126;2022-11-13T09:53:04;100343.50;;;21.86;33.08
41531;BME280;58990;46.284;13.126;2022-11-13T09:55:33;100341.97;;;21.78;32.93
41531;BME280;58990;46.284;13.126;2022-11-13T09:58:09;100348.38;;;21.89;32.46
41531;BME280;58990;46.284;13.126;2022-11-13T10:00:36;100341.09;;;23.43;30.35
41531;BME280;58990;46.284;13.126;2022-11-13T10:08:37;100334.63;;;26.01;26.35
41531;BME280;58990;46.284;13.126;2022-11-13T10:11:13;100319.09;;;27.10;24.33
41531;BME280;58990;46.284;13.126;2022-11-13T10:13:49;100307.59;;;28.38;22.37
41531;BME280;58990;46.284;13.126;2022-11-13T10:19:11;100297.94;;;28.01;22.94
41531;BME280;58990;46.284;13.126;2022-11-13T10:21:44;100298.13;;;27.17;23.74
41531;BME280;58990;46.284;13.126;2022-11-13T10:24:16;100293.41;;;26.81;24.31
41531;BME280;58990;46.284;13.126;2022-11-13T10:26:43;100297.53;;;26.46;25.83
41531;BME280;58990;46.284;13.126;2022-11-13T10:31:51;100302.03;;;26.78;24.04
41531;BME280;58990;46.284;13.126;2022-11-13T10:34:18;100297.88;;;27.34;24.54
41531;BME280;58990;46.284;13.126;2022-11-13T10:37:19;100293.47;;;26.92;24.27
41531;BME280;58990;46.284;13.126;2022-11-13T10:39:46;100296.31;;;27.69;23.22
41531;BME280;58990;46.284;13.126;2022-11-13T10:44:59;100274.75;;;27.48;22.66
41531;BME280;58990;46.284;13.126;2022-11-13T10:47:27;100276.78;;;26.95;24.20
41531;BME280;58990;46.284;13.126;2022-11-13T10:49:56;100262.53;;;26.41;24.94
41531;BME280;58990;46.284;13.126;2022-11-13T10:52:26;100260.56;;;26.74;24.17
41531;BME280;58990;46.284;13.126;2022-11-13T10:57:55;100257.69;;;26.43;23.83
41531;BME280;58990;46.284;13.126;2022-11-13T11:03:01;100254.97;;;25.95;24.74
41531;BME280;58990;46.284;13.126;2022-11-13T11:05:27;100252.91;;;25.70;26.92
41531;BME280;58990;46.284;13.126;2022-11-13T11:07:55;100242.19;;;24.88;27.04
41531;BME280;58990;46.284;13.126;2022-11-13T11:13:10;100237.81;;;25.64;25.48
41531;BME280;58990;46.284;13.126;2022-11-13T11:15:57;100240.81;;;25.67;25.96
41531;BME280;58990;46.284;13.126;2022-11-13T11:18:28;100241.47;;;24.53;28.61
41531;BME280;58990;46.284;13.126;2022-11-13T11:20:58;100231.44;;;24.44;29.46
41531;BME280;58990;46.284;13.126;2022-11-13T11:34:40;100188.38;;;22.16;32.78
41531;BME280;58990;46.284;13.126;2022-11-13T11:37:19;100184.53;;;22.24;31.91
41531;BME280;58990;46.284;13.126;2022-11-13T11:47:47;100159.72;;;22.52;31.56
41531;BME280;58990;46.284;13.126;2022-11-13T11:50:15;100158.06;;;22.10;32.27
41531;BME280;58990;46.284;13.126;2022-11-13T11:55:29;100151.25;;;21.91;32.85
41531;BME280;58990;46.284;13.126;2022-11-13T12:00:52;100146.50;;;21.69;32.90
41531;BME280;58990;46.284;13.126;2022-11-13T12:09:40;100144.91;;;21.26;34.10
41531;BME280;58990;46.284;13.126;2022-11-13T12:32:23;100128.94;;;18.44;38.79
41531;BME280;58990;46.284;13.126;2022-11-13T12:34:57;100119.81;;;18.72;37.59
41531;BME280;58990;46.284;13.126;2022-11-13T12:37:38;100119.00;;;18.72;38.29
41531;BME280;58990;46.284;13.126;2022-11-13T12:40:17;100108.81;;;18.62;37.80
41531;BME280;58990;46.284;13.126;2022-11-13T12:42:53;100106.97;;;19.01;37.23
41531;BME280;58990;46.284;13.126;2022-11-13T12:45:51;100096.13;;;18.71;38.16
41531;BME280;58990;46.284;13.126;2022-11-13T12:50:57;100098.34;;;18.74;37.64
41531;BME280;58990;46.284;13.126;2022-11-13T12:53:26;100099.94;;;19.13;36.38
41531;BME280;58990;46.284;13.126;2022-11-13T12:56:00;100089.81;;;18.58;37.76
41531;BME280;58990;46.284;13.126;2022-11-13T12:58:29;100085.84;;;18.74;39.00
41531;BME280;58990;46.284;13.126;2022-11-13T13:15:07;100066.75;;;18.84;37.20
41531;BME280;58990;46.284;13.126;2022-11-13T13:17:35;100069.78;;;18.56;39.74
41531;BME280;58990;46.284;13.126;2022-11-13T13:22:56;100063.28;;;18.90;38.61
41531;BME280;58990;46.284;13.126;2022-11-13T13:33:51;100073.38;;;18.36;39.85
41531;BME280;58990;46.284;13.126;2022-11-13T13:42:00;100082.06;;;18.11;40.72
41531;BME280;58990;46.284;13.126;2022-11-13T13:49:57;100060.00;;;18.56;39.01
41531;BME280;58990;46.284;13.126;2022-11-13T13:52:27;100061.44;;;18.52;39.17
41531;BME280;58990;46.284;13.126;2022-11-13T13:54:54;100056.47;;;18.24;40.96
41531;BME280;58990;46.284;13.126;2022-11-13T13:57:20;100059.19;;;18.10;40.84
41531;BME280;58990;46.284;13.126;2022-11-13T13:59:48;100062.56;;;17.72;41.51
41531;BME280;58990;46.284;13.126;2022-11-13T14:02:17;100064.19;;;17.60;41.92
41531;BME280;58990;46.284;13.126;2022-11-13T14:04:45;100058.88;;;17.60;41.56
41531;BME280;58990;46.284;13.126;2022-11-13T14:07:21;100060.75;;;17.39;41.79
41531;BME280;58990;46.284;13.126;2022-11-13T14:09:47;100058.53;;;17.36;41.86
41531;BME280;58990;46.284;13.126;2022-11-13T14:12:18;100053.81;;;17.38;41.88
41531;BME280;58990;46.284;13.126;2022-11-13T14:14:44;100060.97;;;17.44;41.72
41531;BME280;58990;46.284;13.126;2022-11-13T14:17:10;100059.75;;;17.27;42.56
41531;BME280;58990;46.284;13.126;2022-11-13T14:19:36;100056.50;;;17.11;43.46
41531;BME280;58990;46.284;13.126;2022-11-13T14:22:04;100050.78;;;17.01;43.15
41531;BME280;58990;46.284;13.126;2022-11-13T14:24:34;100060.72;;;16.72;43.89
41531;BME280;58990;46.284;13.126;2022-11-13T14:27:02;100058.25;;;16.77;43.88
41531;BME280;58990;46.284;13.126;2022-11-13T14:29:34;100051.38;;;16.90;44.12
41531;BME280;58990;46.284;13.126;2022-11-13T14:32:15;100063.56;;;16.84;43.96
41531;BME280;58990;46.284;13.126;2022-11-13T14:34:43;100068.66;;;16.72;44.08
41531;BME280;58990;46.284;13.126;2022-11-13T14:37:36;100060.69;;;16.59;44.42
41531;BME280;58990;46.284;13.126;2022-11-13T14:40:09;100062.41;;;16.31;45.19
41531;BME280;58990;46.284;13.126;2022-11-13T14:42:43;100067.88;;;16.23;43.69
41531;BME280;58990;46.284;13.126;2022-11-13T14:45:23;100071.38;;;16.24;46.88
41531;BME280;58990;46.284;13.126;2022-11-13T14:50:35;100054.97;;;16.00;49.33
41531;BME280;58990;46.284;13.126;2022-11-13T14:55:51;100059.31;;;15.79;50.74